sensor_id;sensor_type;location;lat;lon;timestamp;P1;durP1;ratioP1;P2;durP2;ratioP2
78856;SDS011;68207;50.078;19.936;2024-01-15T00:01:42;7.10;;;4.50;;
78856;SDS011;68207;50.078;19.936;2024-01-15T00:04:08;7.80;;;4.50;;
78856;SDS011;68207;50.078;19.936;2024-01-15T00:06:33;7.40;;;4.20;;
78856;SDS011;68207;50.078;19.936;2024-01-15T00:08:58;7.30;;;4.70;;
78856;SDS011;68207;50.078;19.936;2024-01-15T00:11:23;8.30;;;4.70;;
78856;SDS011;68207;50.078;19.936;2024-01-15T00:13:49;8.30;;;4.60;;
78856;SDS011;68207;50.078;19.936;2024-01-15T00:16:14;9.30;;;5.10;;
78856;SDS011;68207;50.078;19.936;2024-01-15T00:18:39;7.00;;;4.20;;
78856;SDS011;68207;50.078;19.936;2024-01-15T00:21:04;7.60;;;4.20;;
78856;SDS011;68207;50.078;19.936;2024-01-15T00:23:30;8.10;;;4.40;;
78856;SDS011;68207;50.078;19.936;2024-01-15T00:25:55;8.50;;;4.80;;
78856;SDS011;68207;50.078;19.936;2024-01-15T00:28:20;7.90;;;4.30;;
78856;SDS011;68207;50.078;19.936;2024-01-15T00:30:45;8.70;;;4.40;;
78856;SDS011;68207;50.078;19.936;2024-01-15T00:33:10;7.40;;;4.60;;
78856;SDS011;68207;50.078;19.936;2024-01-15T00:35:37;9.30;;;4.60;;
78856;SDS011;68207;50.078;19.936;2024-01-15T00:38:02;7.00;;;4.40;;
78856;SDS011;68207;50.078;19.936;2024-01-15T00:40:27;7.90;;;4.60;;
78856;SDS011;68207;50.078;19.936;2024-01-15T00:42:53;8.70;;;4.30;;
78856;SDS011;68207;50.078;19.936;2024-01-15T00:45:18;8.70;;;4.90;;
78856;SDS011;68207;50.078;19.936;2024-01-15T00:47:43;5.70;;;4.00;;
78856;SDS011;68207;50.078;19.936;2024-01-15T00:50:09;7.80;;;4.30;;
78856;SDS011;68207;50.078;19.936;2024-01-15T00:52:34;9.00;;;4.50;;
78856;SDS011;68207;50.078;19.936;2024-01-15T00:54:59;7.20;;;4.80;;
78856;SDS011;68207;50.078;19.936;2024-01-15T00:57:25;7.80;;;4.70;;
78856;SDS011;68207;50.078;19.936;2024-01-15T00:59:50;6.00;;;3.90;;
78856;SDS011;68207;50.078;19.936;2024-01-15T01:02:15;6.60;;;4.20;;
78856;SDS011;68207;50.078;19.936;2024-01-15T01:04:40;6.50;;;4.70;;
78856;SDS011;68207;50.078;19.936;2024-01-15T01:07:06;7.30;;;4.60;;
78856;SDS011;68207;50.078;19.936;2024-01-15T01:09:31;7.50;;;4.20;;
78856;SDS011;68207;50.078;19.936;2024-01-15T01:11:56;7.80;;;4.20;;
78856;SDS011;68207;50.078;19.936;2024-01-15T01:14:22;6.80;;;4.10;;
78856;SDS011;68207;50.078;19.936;2024-01-15T01:16:47;8.80;;;4.30;;
78856;SDS011;68207;50.078;19.936;2024-01-15T01:19:12;7.80;;;4.20;;
78856;SDS011;68207;50.078;19.936;2024-01-15T01:21:37;6.20;;;4.00;;
78856;SDS011;68207;50.078;19.936;2024-01-15T01:24:03;8.40;;;4.10;;
78856;SDS011;68207;50.078;19.936;2024-01-15T01:26:28;8.10;;;4.70;;
78856;SDS011;68207;50.078;19.936;2024-01-15T01:28:53;7.60;;;4.60;;
78856;SDS011;68207;50.078;19.936;2024-01-15T01:31:18;6.20;;;4.10;;
78856;SDS011;68207;50.078;19.936;2024-01-15T01:33:44;8.00;;;4.60;;
78856;SDS011;68207;50.078;19.936;2024-01-15T01:36:09;7.60;;;4.40;;
78856;SDS011;68207;50.078;19.936;2024-01-15T01:38:35;7.80;;;5.00;;
78856;SDS011;68207;50.078;19.936;2024-01-15T01:41:00;6.80;;;4.30;;
78856;SDS011;68207;50.078;19.936;2024-01-15T01:43:25;6.80;;;4.20;;
78856;SDS011;68207;50.078;19.936;2024-01-15T01:45:51;6.20;;;3.90;;
78856;SDS011;68207;50.078;19.936;2024-01-15T01:48:16;7.90;;;4.80;;
78856;SDS011;68207;50.078;19.936;2024-01-15T01:50:41;7.00;;;4.00;;
78856;SDS011;68207;50.078;19.936;2024-01-15T01:53:06;7.80;;;4.40;;
78856;SDS011;68207;50.078;19.936;2024-01-15T01:55:31;8.60;;;4.10;;
78856;SDS011;68207;50.078;19.936;2024-01-15T01:57:58;5.90;;;3.70;;
78856;SDS011;68207;50.078;19.936;2024-01-15T02:00:24;7.00;;;3.80;;
78856;SDS011;68207;50.078;19.936;2024-01-15T02:02:49;7.50;;;3.80;;
78856;SDS011;68207;50.078;19.936;2024-01-15T02:05:14;4.70;;;3.30;;
78856;SDS011;68207;50.078;19.936;2024-01-15T02:07:43;5.80;;;3.70;;
78856;SDS011;68207;50.078;19.936;2024-01-15T02:10:09;7.00;;;3.70;;
78856;SDS011;68207;50.078;19.936;2024-01-15T02:12:34;6.80;;;3.80;;
78856;SDS011;68207;50.078;19.936;2024-01-15T02:15:00;5.60;;;3.30;;
78856;SDS011;68207;50.078;19.936;2024-01-15T02:17:25;6.80;;;3.80;;
78856;SDS011;68207;50.078;19.936;2024-01-15T02:19:50;5.60;;;3.80;;
78856;SDS011;68207;50.078;19.936;2024-01-15T02:22:15;6.30;;;3.50;;
78856;SDS011;68207;50.078;19.936;2024-01-15T02:24:41;5.90;;;3.30;;
78856;SDS011;68207;50.078;19.936;2024-01-15T02:27:06;4.30;;;3.00;;
78856;SDS011;68207;50.078;19.936;2024-01-15T02:29:32;5.40;;;3.00;;
78856;SDS011;68207;50.078;19.936;2024-01-15T02:31:57;5.20;;;3.30;;
78856;SDS011;68207;50.078;19.936;2024-01-15T02:34:22;5.50;;;3.30;;
78856;SDS011;68207;50.078;19.936;2024-01-15T02:36:48;5.70;;;3.40;;
78856;SDS011;68207;50.078;19.936;2024-01-15T02:39:13;5.40;;;2.80;;
78856;SDS011;68207;50.078;19.936;2024-01-15T02:41:38;5.60;;;2.90;;
78856;SDS011;68207;50.078;19.936;2024-01-15T02:44:03;4.80;;;3.00;;
78856;SDS011;68207;50.078;19.936;2024-01-15T02:46:29;4.70;;;3.00;;
78856;SDS011;68207;50.078;19.936;2024-01-15T02:48:54;5.20;;;3.10;;
78856;SDS011;68207;50.078;19.936;2024-01-15T02:51:19;4.40;;;2.80;;
78856;SDS011;68207;50.078;19.936;2024-01-15T02:53:44;5.70;;;3.10;;
78856;SDS011;68207;50.078;19.936;2024-01-15T02:56:10;5.60;;;3.30;;
78856;SDS011;68207;50.078;19.936;2024-01-15T02:58:35;5.40;;;2.70;;
78856;SDS011;68207;50.078;19.936;2024-01-15T03:01:00;5.10;;;3.00;;
78856;SDS011;68207;50.078;19.936;2024-01-15T03:03:25;5.20;;;3.00;;
78856;SDS011;68207;50.078;19.936;2024-01-15T03:05:51;5.50;;;3.00;;
78856;SDS011;68207;50.078;19.936;2024-01-15T03:08:16;5.00;;;3.10;;
78856;SDS011;68207;50.078;19.936;2024-01-15T03:10:42;4.80;;;2.80;;
78856;SDS011;68207;50.078;19.936;2024-01-15T03:13:07;5.40;;;2.50;;
78856;SDS011;68207;50.078;19.936;2024-01-15T03:15:32;5.40;;;3.10;;
78856;SDS011;68207;50.078;19.936;2024-01-15T03:17:58;5.30;;;2.80;;
78856;SDS011;68207;50.078;19.936;2024-01-15T03:20:23;6.00;;;2.80;;
78856;SDS011;68207;50.078;19.936;2024-01-15T03:22:48;5.10;;;2.80;;
78856;SDS011;68207;50.078;19.936;2024-01-15T03:25:14;4.50;;;3.10;;
78856;SDS011;68207;50.078;19.936;2024-01-15T03:27:39;5.10;;;2.80;;
78856;SDS011;68207;50.078;19.936;2024-01-15T03:30:04;4.60;;;2.90;;
78856;SDS011;68207;50.078;19.936;2024-01-15T03:32:30;4.20;;;3.00;;
78856;SDS011;68207;50.078;19.936;2024-01-15T03:34:55;6.00;;;3.00;;
78856;SDS011;68207;50.078;19.936;2024-01-15T03:37:20;4.60;;;2.80;;
78856;SDS011;68207;50.078;19.936;2024-01-15T03:39:46;5.60;;;3.10;;
78856;SDS011;68207;50.078;19.936;2024-01-15T03:42:11;3.80;;;2.50;;
78856;SDS011;68207;50.078;19.936;2024-01-15T03:44:36;4.40;;;2.40;;
78856;SDS011;68207;50.078;19.936;2024-01-15T03:47:01;4.10;;;2.50;;
78856;SDS011;68207;50.078;19.936;2024-01-15T03:49:26;4.60;;;2.60;;
78856;SDS011;68207;50.078;19.936;2024-01-15T03:51:52;4.60;;;2.70;;
78856;SDS011;68207;50.078;19.936;2024-01-15T03:54:17;4.70;;;2.40;;
78856;SDS011;68207;50.078;19.936;2024-01-15T03:56:42;4.80;;;2.40;;
78856;SDS011;68207;50.078;19.936;2024-01-15T03:59:07;3.30;;;2.20;;
78856;SDS011;68207;50.078;19.936;2024-01-15T04:01:33;4.30;;;2.60;;
78856;SDS011;68207;50.078;19.936;2024-01-15T04:03:58;4.40;;;2.50;;
78856;SDS011;68207;50.078;19.936;2024-01-15T04:06:23;5.90;;;2.60;;
78856;SDS011;68207;50.078;19.936;2024-01-15T04:08:49;3.70;;;2.20;;
78856;SDS011;68207;50.078;19.936;2024-01-15T04:11:14;5.00;;;2.40;;
78856;SDS011;68207;50.078;19.936;2024-01-15T04:13:39;4.90;;;2.30;;
78856;SDS011;68207;50.078;19.936;2024-01-15T04:16:04;3.90;;;2.50;;
78856;SDS011;68207;50.078;19.936;2024-01-15T04:18:30;4.70;;;2.30;;
78856;SDS011;68207;50.078;19.936;2024-01-15T04:20:55;5.00;;;2.50;;
78856;SDS011;68207;50.078;19.936;2024-01-15T04:23:20;3.70;;;2.30;;
78856;SDS011;68207;50.078;19.936;2024-01-15T04:25:45;3.40;;;2.20;;
78856;SDS011;68207;50.078;19.936;2024-01-15T04:28:11;3.50;;;2.30;;
78856;SDS011;68207;50.078;19.936;2024-01-15T04:30:36;3.90;;;2.50;;
78856;SDS011;68207;50.078;19.936;2024-01-15T04:33:02;4.00;;;2.40;;
78856;SDS011;68207;50.078;19.936;2024-01-15T04:35:27;5.10;;;2.40;;
78856;SDS011;68207;50.078;19.936;2024-01-15T04:37:52;3.60;;;2.50;;
78856;SDS011;68207;50.078;19.936;2024-01-15T04:40:17;3.50;;;2.30;;
78856;SDS011;68207;50.078;19.936;2024-01-15T04:42:43;3.30;;;2.30;;
78856;SDS011;68207;50.078;19.936;2024-01-15T04:45:10;6.20;;;2.40;;
78856;SDS011;68207;50.078;19.936;2024-01-15T04:47:35;3.80;;;2.30;;
78856;SDS011;68207;50.078;19.936;2024-01-15T04:50:02;4.10;;;2.30;;
78856;SDS011;68207;50.078;19.936;2024-01-15T04:52:27;3.50;;;1.90;;
78856;SDS011;68207;50.078;19.936;2024-01-15T04:54:52;4.20;;;2.20;;
78856;SDS011;68207;50.078;19.936;2024-01-15T04:57:17;4.10;;;2.40;;
78856;SDS011;68207;50.078;19.936;2024-01-15T04:59:42;3.40;;;2.40;;
78856;SDS011;68207;50.078;19.936;2024-01-15T05:02:08;4.90;;;2.50;;
78856;SDS011;68207;50.078;19.936;2024-01-15T05:04:33;3.80;;;2.30;;
78856;SDS011;68207;50.078;19.936;2024-01-15T05:06:58;3.50;;;2.10;;
78856;SDS011;68207;50.078;19.936;2024-01-15T05:09:23;5.20;;;2.70;;
78856;SDS011;68207;50.078;19.936;2024-01-15T05:11:49;4.50;;;2.50;;
78856;SDS011;68207;50.078;19.936;2024-01-15T05:14:14;4.50;;;2.10;;
78856;SDS011;68207;50.078;19.936;2024-01-15T05:16:39;4.80;;;2.30;;
78856;SDS011;68207;50.078;19.936;2024-01-15T05:19:06;4.10;;;2.40;;
78856;SDS011;68207;50.078;19.936;2024-01-15T05:21:31;4.20;;;2.30;;
78856;SDS011;68207;50.078;19.936;2024-01-15T05:23:57;4.50;;;2.30;;
78856;SDS011;68207;50.078;19.936;2024-01-15T05:26:22;5.90;;;2.30;;
78856;SDS011;68207;50.078;19.936;2024-01-15T05:28:47;3.80;;;2.50;;
78856;SDS011;68207;50.078;19.936;2024-01-15T05:31:13;4.00;;;2.40;;
78856;SDS011;68207;50.078;19.936;2024-01-15T05:33:38;3.80;;;2.30;;
78856;SDS011;68207;50.078;19.936;2024-01-15T05:36:03;4.60;;;2.20;;
78856;SDS011;68207;50.078;19.936;2024-01-15T05:38:29;3.80;;;2.50;;
78856;SDS011;68207;50.078;19.936;2024-01-15T05:40:54;4.00;;;2.30;;
78856;SDS011;68207;50.078;19.936;2024-01-15T05:43:19;4.40;;;2.30;;
78856;SDS011;68207;50.078;19.936;2024-01-15T05:45:44;4.80;;;2.50;;
78856;SDS011;68207;50.078;19.936;2024-01-15T05:48:10;5.80;;;2.70;;
78856;SDS011;68207;50.078;19.936;2024-01-15T05:50:35;5.20;;;2.50;;
78856;SDS011;68207;50.078;19.936;2024-01-15T05:53:00;5.40;;;2.70;;
78856;SDS011;68207;50.078;19.936;2024-01-15T05:55:26;4.30;;;2.90;;
78856;SDS011;68207;50.078;19.936;2024-01-15T05:57:51;3.70;;;2.30;;
78856;SDS011;68207;50.078;19.936;2024-01-15T06:00:16;5.10;;;3.10;;
78856;SDS011;68207;50.078;19.936;2024-01-15T06:02:42;4.30;;;2.80;;
78856;SDS011;68207;50.078;19.936;2024-01-15T06:05:07;4.00;;;2.40;;
78856;SDS011;68207;50.078;19.936;2024-01-15T06:07:35;4.60;;;3.00;;
78856;SDS011;68207;50.078;19.936;2024-01-15T06:10:01;4.50;;;2.90;;
78856;SDS011;68207;50.078;19.936;2024-01-15T06:12:27;4.80;;;2.50;;
78856;SDS011;68207;50.078;19.936;2024-01-15T06:14:53;5.30;;;3.10;;
78856;SDS011;68207;50.078;19.936;2024-01-15T06:17:18;4.00;;;2.60;;
78856;SDS011;68207;50.078;19.936;2024-01-15T06:19:43;4.80;;;2.50;;
78856;SDS011;68207;50.078;19.936;2024-01-15T06:22:09;5.00;;;2.50;;
78856;SDS011;68207;50.078;19.936;2024-01-15T06:24:34;4.70;;;2.50;;
78856;SDS011;68207;50.078;19.936;2024-01-15T06:26:59;4.90;;;2.90;;
78856;SDS011;68207;50.078;19.936;2024-01-15T06:29:25;4.30;;;2.80;;
78856;SDS011;68207;50.078;19.936;2024-01-15T06:31:50;5.50;;;3.00;;
78856;SDS011;68207;50.078;19.936;2024-01-15T06:34:16;4.10;;;2.70;;
78856;SDS011;68207;50.078;19.936;2024-01-15T06:36:41;5.90;;;3.00;;
78856;SDS011;68207;50.078;19.936;2024-01-15T06:39:06;5.40;;;3.10;;
78856;SDS011;68207;50.078;19.936;2024-01-15T06:41:31;4.70;;;2.60;;
78856;SDS011;68207;50.078;19.936;2024-01-15T06:43:57;3.80;;;2.70;;
78856;SDS011;68207;50.078;19.936;2024-01-15T06:46:22;4.30;;;2.70;;
78856;SDS011;68207;50.078;19.936;2024-01-15T06:48:48;4.50;;;2.90;;
78856;SDS011;68207;50.078;19.936;2024-01-15T06:51:13;5.20;;;2.90;;
78856;SDS011;68207;50.078;19.936;2024-01-15T06:53:38;6.30;;;2.70;;
78856;SDS011;68207;50.078;19.936;2024-01-15T06:56:04;4.30;;;2.90;;
78856;SDS011;68207;50.078;19.936;2024-01-15T06:58:30;5.20;;;2.70;;
78856;SDS011;68207;50.078;19.936;2024-01-15T07:00:56;5.20;;;3.10;;
78856;SDS011;68207;50.078;19.936;2024-01-15T07:03:21;4.50;;;2.90;;
78856;SDS011;68207;50.078;19.936;2024-01-15T07:05:46;6.10;;;3.20;;
78856;SDS011;68207;50.078;19.936;2024-01-15T07:08:11;4.60;;;3.00;;
78856;SDS011;68207;50.078;19.936;2024-01-15T07:10:36;5.90;;;3.00;;
78856;SDS011;68207;50.078;19.936;2024-01-15T07:13:02;4.30;;;2.90;;
78856;SDS011;68207;50.078;19.936;2024-01-15T07:15:27;5.20;;;3.00;;
78856;SDS011;68207;50.078;19.936;2024-01-15T07:17:52;5.60;;;3.20;;
78856;SDS011;68207;50.078;19.936;2024-01-15T07:20:17;6.20;;;3.60;;
78856;SDS011;68207;50.078;19.936;2024-01-15T07:22:44;6.20;;;3.70;;
78856;SDS011;68207;50.078;19.936;2024-01-15T07:25:10;5.50;;;3.00;;
78856;SDS011;68207;50.078;19.936;2024-01-15T07:27:35;6.90;;;3.80;;
78856;SDS011;68207;50.078;19.936;2024-01-15T07:30:00;5.60;;;3.20;;
78856;SDS011;68207;50.078;19.936;2024-01-15T07:32:25;6.20;;;3.40;;
78856;SDS011;68207;50.078;19.936;2024-01-15T07:34:51;5.60;;;3.40;;
78856;SDS011;68207;50.078;19.936;2024-01-15T07:37:16;6.50;;;3.90;;
78856;SDS011;68207;50.078;19.936;2024-01-15T07:39:41;7.50;;;3.60;;
78856;SDS011;68207;50.078;19.936;2024-01-15T07:42:06;7.40;;;3.50;;
78856;SDS011;68207;50.078;19.936;2024-01-15T07:44:32;6.90;;;3.90;;
78856;SDS011;68207;50.078;19.936;2024-01-15T07:46:57;7.80;;;4.10;;
78856;SDS011;68207;50.078;19.936;2024-01-15T07:49:22;6.80;;;3.60;;
78856;SDS011;68207;50.078;19.936;2024-01-15T07:51:48;7.60;;;4.30;;
78856;SDS011;68207;50.078;19.936;2024-01-15T07:54:14;7.80;;;4.20;;
78856;SDS011;68207;50.078;19.936;2024-01-15T07:56:55;7.80;;;4.30;;
78856;SDS011;68207;50.078;19.936;2024-01-15T07:59:20;6.90;;;4.00;;
78856;SDS011;68207;50.078;19.936;2024-01-15T08:01:45;7.60;;;4.40;;
78856;SDS011;68207;50.078;19.936;2024-01-15T08:04:10;6.10;;;4.20;;
78856;SDS011;68207;50.078;19.936;2024-01-15T08:06:37;7.80;;;4.10;;
78856;SDS011;68207;50.078;19.936;2024-01-15T08:09:03;7.60;;;4.10;;
78856;SDS011;68207;50.078;19.936;2024-01-15T08:11:29;6.70;;;3.70;;
78856;SDS011;68207;50.078;19.936;2024-01-15T08:13:54;7.30;;;4.50;;
78856;SDS011;68207;50.078;19.936;2024-01-15T08:16:19;7.00;;;4.00;;
78856;SDS011;68207;50.078;19.936;2024-01-15T08:18:45;7.00;;;4.60;;
78856;SDS011;68207;50.078;19.936;2024-01-15T08:21:10;7.60;;;4.20;;
78856;SDS011;68207;50.078;19.936;2024-01-15T08:23:35;7.80;;;4.30;;
78856;SDS011;68207;50.078;19.936;2024-01-15T08:26:00;8.50;;;4.70;;
78856;SDS011;68207;50.078;19.936;2024-01-15T08:28:25;8.70;;;4.70;;
78856;SDS011;68207;50.078;19.936;2024-01-15T08:30:51;8.80;;;4.30;;
78856;SDS011;68207;50.078;19.936;2024-01-15T08:33:16;6.50;;;4.30;;
78856;SDS011;68207;50.078;19.936;2024-01-15T08:35:41;6.30;;;4.00;;
78856;SDS011;68207;50.078;19.936;2024-01-15T08:38:06;7.60;;;4.10;;
78856;SDS011;68207;50.078;19.936;2024-01-15T08:40:32;7.90;;;5.00;;
78856;SDS011;68207;50.078;19.936;2024-01-15T08:42:57;9.20;;;4.80;;
78856;SDS011;68207;50.078;19.936;2024-01-15T08:45:22;10.30;;;5.80;;
78856;SDS011;68207;50.078;19.936;2024-01-15T08:47:48;9.00;;;5.00;;
78856;SDS011;68207;50.078;19.936;2024-01-15T08:50:13;10.40;;;5.30;;
78856;SDS011;68207;50.078;19.936;2024-01-15T08:52:38;9.40;;;5.20;;
78856;SDS011;68207;50.078;19.936;2024-01-15T08:55:04;7.00;;;4.50;;
78856;SDS011;68207;50.078;19.936;2024-01-15T08:57:29;6.50;;;3.90;;
78856;SDS011;68207;50.078;19.936;2024-01-15T08:59:54;9.60;;;4.80;;
78856;SDS011;68207;50.078;19.936;2024-01-15T09:02:20;6.90;;;4.30;;
78856;SDS011;68207;50.078;19.936;2024-01-15T09:04:45;7.60;;;4.10;;
78856;SDS011;68207;50.078;19.936;2024-01-15T09:07:11;7.20;;;3.90;;
78856;SDS011;68207;50.078;19.936;2024-01-15T09:09:36;6.30;;;4.30;;
78856;SDS011;68207;50.078;19.936;2024-01-15T09:12:01;9.50;;;5.10;;
78856;SDS011;68207;50.078;19.936;2024-01-15T09:14:27;7.60;;;4.20;;
78856;SDS011;68207;50.078;19.936;2024-01-15T09:16:54;7.70;;;4.70;;
78856;SDS011;68207;50.078;19.936;2024-01-15T09:19:19;7.00;;;4.40;;
78856;SDS011;68207;50.078;19.936;2024-01-15T09:21:44;9.90;;;4.60;;
78856;SDS011;68207;50.078;19.936;2024-01-15T09:24:09;7.40;;;4.50;;
78856;SDS011;68207;50.078;19.936;2024-01-15T09:26:35;7.10;;;4.70;;
78856;SDS011;68207;50.078;19.936;2024-01-15T09:29:00;8.80;;;5.10;;
78856;SDS011;68207;50.078;19.936;2024-01-15T09:31:26;6.80;;;4.50;;
78856;SDS011;68207;50.078;19.936;2024-01-15T09:33:52;8.00;;;4.70;;
78856;SDS011;68207;50.078;19.936;2024-01-15T09:36:21;9.70;;;5.30;;
78856;SDS011;68207;50.078;19.936;2024-01-15T09:38:46;10.00;;;4.90;;
78856;SDS011;68207;50.078;19.936;2024-01-15T09:41:11;9.40;;;5.50;;
78856;SDS011;68207;50.078;19.936;2024-01-15T09:43:36;9.10;;;5.50;;
78856;SDS011;68207;50.078;19.936;2024-01-15T09:46:03;10.10;;;5.10;;
78856;SDS011;68207;50.078;19.936;2024-01-15T09:48:28;9.60;;;6.40;;
78856;SDS011;68207;50.078;19.936;2024-01-15T09:50:54;11.00;;;6.80;;
78856;SDS011;68207;50.078;19.936;2024-01-15T09:53:19;9.80;;;5.30;;
78856;SDS011;68207;50.078;19.936;2024-01-15T09:55:46;8.40;;;5.70;;
78856;SDS011;68207;50.078;19.936;2024-01-15T09:58:11;11.00;;;6.20;;
78856;SDS011;68207;50.078;19.936;2024-01-15T10:00:37;9.50;;;6.00;;
78856;SDS011;68207;50.078;19.936;2024-01-15T10:03:06;11.20;;;6.30;;
78856;SDS011;68207;50.078;19.936;2024-01-15T10:05:32;10.20;;;6.20;;
78856;SDS011;68207;50.078;19.936;2024-01-15T10:07:57;9.20;;;6.00;;
78856;SDS011;68207;50.078;19.936;2024-01-15T10:10:23;10.50;;;6.10;;
78856;SDS011;68207;50.078;19.936;2024-01-15T10:12:49;11.40;;;6.60;;
78856;SDS011;68207;50.078;19.936;2024-01-15T10:15:14;9.80;;;6.20;;
78856;SDS011;68207;50.078;19.936;2024-01-15T10:17:40;10.70;;;6.50;;
78856;SDS011;68207;50.078;19.936;2024-01-15T10:20:09;13.40;;;7.60;;
78856;SDS011;68207;50.078;19.936;2024-01-15T10:22:35;14.00;;;7.30;;
78856;SDS011;68207;50.078;19.936;2024-01-15T10:25:02;14.10;;;7.50;;
78856;SDS011;68207;50.078;19.936;2024-01-15T10:27:28;11.60;;;6.80;;
78856;SDS011;68207;50.078;19.936;2024-01-15T10:29:53;11.80;;;7.00;;
78856;SDS011;68207;50.078;19.936;2024-01-15T10:32:19;12.70;;;7.30;;
78856;SDS011;68207;50.078;19.936;2024-01-15T10:34:44;13.00;;;6.90;;
78856;SDS011;68207;50.078;19.936;2024-01-15T10:37:09;13.80;;;7.20;;
78856;SDS011;68207;50.078;19.936;2024-01-15T10:39:35;11.50;;;6.80;;
78856;SDS011;68207;50.078;19.936;2024-01-15T10:42:01;12.70;;;6.70;;
78856;SDS011;68207;50.078;19.936;2024-01-15T10:44:26;14.80;;;6.80;;
78856;SDS011;68207;50.078;19.936;2024-01-15T10:46:52;12.10;;;7.40;;
78856;SDS011;68207;50.078;19.936;2024-01-15T10:49:17;13.70;;;7.00;;
78856;SDS011;68207;50.078;19.936;2024-01-15T10:51:44;13.20;;;8.00;;
78856;SDS011;68207;50.078;19.936;2024-01-15T10:54:10;9.30;;;6.10;;
78856;SDS011;68207;50.078;19.936;2024-01-15T10:56:37;13.40;;;7.00;;
78856;SDS011;68207;50.078;19.936;2024-01-15T10:59:03;14.00;;;6.70;;
78856;SDS011;68207;50.078;19.936;2024-01-15T11:01:29;11.70;;;6.80;;
78856;SDS011;68207;50.078;19.936;2024-01-15T11:03:55;12.70;;;7.40;;
78856;SDS011;68207;50.078;19.936;2024-01-15T11:06:22;12.30;;;7.10;;
78856;SDS011;68207;50.078;19.936;2024-01-15T11:08:48;12.40;;;6.70;;
78856;SDS011;68207;50.078;19.936;2024-01-15T11:11:17;12.30;;;6.20;;
78856;SDS011;68207;50.078;19.936;2024-01-15T11:13:43;9.90;;;6.70;;
78856;SDS011;68207;50.078;19.936;2024-01-15T11:16:11;11.10;;;6.90;;
78856;SDS011;68207;50.078;19.936;2024-01-15T11:23:49;12.00;;;7.10;;
78856;SDS011;68207;50.078;19.936;2024-01-15T11:28:52;10.10;;;6.30;;
78856;SDS011;68207;50.078;19.936;2024-01-15T11:31:17;10.50;;;7.10;;
78856;SDS011;68207;50.078;19.936;2024-01-15T11:33:49;10.90;;;6.70;;
78856;SDS011;68207;50.078;19.936;2024-01-15T11:36:14;14.20;;;7.30;;
78856;SDS011;68207;50.078;19.936;2024-01-15T11:38:40;13.30;;;6.50;;
78856;SDS011;68207;50.078;19.936;2024-01-15T11:41:13;11.10;;;6.90;;
78856;SDS011;68207;50.078;19.936;2024-01-15T11:43:39;11.90;;;6.70;;
78856;SDS011;68207;50.078;19.936;2024-01-15T11:46:04;11.00;;;6.70;;
78856;SDS011;68207;50.078;19.936;2024-01-15T11:48:35;11.40;;;7.30;;
78856;SDS011;68207;50.078;19.936;2024-01-15T11:51:03;12.30;;;6.90;;
78856;SDS011;68207;50.078;19.936;2024-01-15T11:54:01;12.80;;;7.60;;
78856;SDS011;68207;50.078;19.936;2024-01-15T11:56:19;12.50;;;7.20;;
78856;SDS011;68207;50.078;19.936;2024-01-15T11:58:47;12.50;;;7.30;;
78856;SDS011;68207;50.078;19.936;2024-01-15T12:01:12;10.50;;;6.80;;
78856;SDS011;68207;50.078;19.936;2024-01-15T12:03:37;12.70;;;6.50;;
78856;SDS011;68207;50.078;19.936;2024-01-15T12:06:06;13.40;;;7.90;;
78856;SDS011;68207;50.078;19.936;2024-01-15T12:08:32;10.10;;;6.80;;
78856;SDS011;68207;50.078;19.936;2024-01-15T12:10:57;13.40;;;7.70;;
78856;SDS011;68207;50.078;19.936;2024-01-15T12:13:22;11.70;;;7.00;;
78856;SDS011;68207;50.078;19.936;2024-01-15T12:15:48;11.10;;;6.40;;
78856;SDS011;68207;50.078;19.936;2024-01-15T12:18:14;12.50;;;7.40;;
78856;SDS011;68207;50.078;19.936;2024-01-15T12:20:40;10.90;;;6.80;;
78856;SDS011;68207;50.078;19.936;2024-01-15T12:23:07;12.80;;;6.80;;
78856;SDS011;68207;50.078;19.936;2024-01-15T12:25:32;10.30;;;6.10;;
78856;SDS011;68207;50.078;19.936;2024-01-15T12:27:59;9.90;;;6.40;;
78856;SDS011;68207;50.078;19.936;2024-01-15T12:30:25;11.20;;;6.30;;
78856;SDS011;68207;50.078;19.936;2024-01-15T12:32:51;10.80;;;6.80;;
78856;SDS011;68207;50.078;19.936;2024-01-15T12:35:16;11.60;;;6.60;;
78856;SDS011;68207;50.078;19.936;2024-01-15T12:37:42;11.80;;;6.60;;
78856;SDS011;68207;50.078;19.936;2024-01-15T12:40:08;10.90;;;6.60;;
78856;SDS011;68207;50.078;19.936;2024-01-15T12:42:34;10.90;;;6.50;;
78856;SDS011;68207;50.078;19.936;2024-01-15T12:45:00;11.90;;;6.70;;
78856;SDS011;68207;50.078;19.936;2024-01-15T12:47:25;11.60;;;6.80;;
78856;SDS011;68207;50.078;19.936;2024-01-15T12:49:54;10.30;;;6.20;;
78856;SDS011;68207;50.078;19.936;2024-01-15T12:52:20;10.10;;;6.10;;
78856;SDS011;68207;50.078;19.936;2024-01-15T12:54:47;11.20;;;6.60;;
78856;SDS011;68207;50.078;19.936;2024-01-15T12:57:12;12.00;;;6.80;;
78856;SDS011;68207;50.078;19.936;2024-01-15T12:59:37;10.70;;;7.10;;
78856;SDS011;68207;50.078;19.936;2024-01-15T13:02:03;13.00;;;6.80;;
78856;SDS011;68207;50.078;19.936;2024-01-15T13:04:28;11.90;;;6.80;;
78856;SDS011;68207;50.078;19.936;2024-01-15T13:06:53;12.50;;;7.80;;
78856;SDS011;68207;50.078;19.936;2024-01-15T13:09:18;14.70;;;6.50;;
78856;SDS011;68207;50.078;19.936;2024-01-15T13:11:47;11.10;;;6.60;;
78856;SDS011;68207;50.078;19.936;2024-01-15T13:14:12;14.40;;;7.50;;
78856;SDS011;68207;50.078;19.936;2024-01-15T13:16:40;11.10;;;6.50;;
78856;SDS011;68207;50.078;19.936;2024-01-15T13:19:06;10.00;;;6.60;;
78856;SDS011;68207;50.078;19.936;2024-01-15T13:21:32;10.80;;;5.30;;
78856;SDS011;68207;50.078;19.936;2024-01-15T13:23:57;11.30;;;6.70;;
78856;SDS011;68207;50.078;19.936;2024-01-15T13:26:22;11.80;;;6.50;;
78856;SDS011;68207;50.078;19.936;2024-01-15T13:28:48;10.40;;;6.20;;
78856;SDS011;68207;50.078;19.936;2024-01-15T13:31:14;11.20;;;6.80;;
78856;SDS011;68207;50.078;19.936;2024-01-15T13:33:39;11.50;;;6.90;;
78856;SDS011;68207;50.078;19.936;2024-01-15T13:36:05;9.90;;;6.80;;
78856;SDS011;68207;50.078;19.936;2024-01-15T13:38:33;13.10;;;6.80;;
78856;SDS011;68207;50.078;19.936;2024-01-15T13:41:01;11.50;;;6.00;;
78856;SDS011;68207;50.078;19.936;2024-01-15T13:43:26;11.10;;;7.30;;
78856;SDS011;68207;50.078;19.936;2024-01-15T13:45:52;13.00;;;7.10;;
78856;SDS011;68207;50.078;19.936;2024-01-15T13:48:19;11.40;;;6.40;;
78856;SDS011;68207;50.078;19.936;2024-01-15T13:50:44;11.40;;;6.00;;
78856;SDS011;68207;50.078;19.936;2024-01-15T13:53:09;11.30;;;6.20;;
78856;SDS011;68207;50.078;19.936;2024-01-15T13:55:34;11.70;;;6.90;;
78856;SDS011;68207;50.078;19.936;2024-01-15T13:58:00;8.70;;;5.90;;
78856;SDS011;68207;50.078;19.936;2024-01-15T14:00:25;12.20;;;6.90;;
78856;SDS011;68207;50.078;19.936;2024-01-15T14:02:50;13.40;;;6.70;;
78856;SDS011;68207;50.078;19.936;2024-01-15T14:05:15;10.80;;;6.60;;
78856;SDS011;68207;50.078;19.936;2024-01-15T14:07:41;11.50;;;7.10;;
78856;SDS011;68207;50.078;19.936;2024-01-15T14:10:09;10.10;;;6.90;;
78856;SDS011;68207;50.078;19.936;2024-01-15T14:12:35;9.80;;;6.30;;
78856;SDS011;68207;50.078;19.936;2024-01-15T14:15:01;15.70;;;6.70;;
78856;SDS011;68207;50.078;19.936;2024-01-15T14:17:27;10.10;;;6.00;;
78856;SDS011;68207;50.078;19.936;2024-01-15T14:19:52;11.10;;;6.20;;
78856;SDS011;68207;50.078;19.936;2024-01-15T14:22:17;12.90;;;6.90;;
78856;SDS011;68207;50.078;19.936;2024-01-15T14:24:43;12.30;;;6.40;;
78856;SDS011;68207;50.078;19.936;2024-01-15T14:27:08;9.90;;;5.60;;
78856;SDS011;68207;50.078;19.936;2024-01-15T14:29:34;9.90;;;5.90;;